MDI01 EGNH-EGNS
Flight info
| Callsign | MDI01 |
|---|---|
| Flight time | 0h 31m |
| Altitude | 3500 |
| Route | VFR |
| Aircraft | DA62/L-S/C |
Departure
| Time | 2026-04-20 16:38 |
|---|---|
| Airport | Blackpool Airport (EGNH) |
Arrival
| Time | 2026-04-20 17:09 |
|---|---|
| Airport | Isle of Man Airport (EGNS) |
| Time | Latitude | Longitude | Altitude | Speed | Heading |
|---|---|---|---|---|---|
| 2026-04-20 16:32 | 53.77700 | -3.04303 | 34 ft | 0 kts | 357° |
| 2026-04-20 16:36 | 53.77702 | -3.04268 | 34 ft | 10 kts | 123° |
| 2026-04-20 16:36 | 53.77642 | -3.04175 | 34 ft | 11 kts | 184° |
| 2026-04-20 16:36 | 53.77548 | -3.04264 | 34 ft | 20 kts | 211° |
| 2026-04-20 16:36 | 53.77428 | -3.04378 | 34 ft | 20 kts | 203° |
| 2026-04-20 16:37 | 53.77352 | -3.04394 | 34 ft | 10 kts | 176° |
| 2026-04-20 16:37 | 53.77311 | -3.04381 | 34 ft | 1 kts | 162° |
| 2026-04-20 16:37 | 53.77228 | -3.04287 | 32 ft | 17 kts | 112° |
| 2026-04-20 16:37 | 53.77211 | -3.03931 | 35 ft | 59 kts | 95° |
| 2026-04-20 16:38 | 53.77155 | -3.03046 | 148 ft | 88 kts | 91° |
| 2026-04-20 16:38 | 53.77098 | -3.01976 | 394 ft | 93 kts | 89° |
| 2026-04-20 16:38 | 53.77281 | -3.00971 | 726 ft | 94 kts | 27° |
| 2026-04-20 16:38 | 53.77853 | -3.01446 | 1075 ft | 116 kts | 292° |
| 2026-04-20 16:39 | 53.77990 | -3.02909 | 1338 ft | 131 kts | 281° |
| 2026-04-20 16:39 | 53.78086 | -3.04315 | 1960 ft | 111 kts | 280° |
| 2026-04-20 16:39 | 53.78198 | -3.05537 | 2493 ft | 101 kts | 281° |
| 2026-04-20 16:39 | 53.78321 | -3.06682 | 2954 ft | 98 kts | 280° |
| 2026-04-20 16:40 | 53.78469 | -3.07807 | 3373 ft | 98 kts | 280° |
| 2026-04-20 16:40 | 53.78643 | -3.09061 | 3502 ft | 129 kts | 281° |
| 2026-04-20 16:40 | 53.78864 | -3.10714 | 3499 ft | 158 kts | 281° |
| 2026-04-20 16:40 | 53.79116 | -3.12626 | 3496 ft | 174 kts | 281° |
| 2026-04-20 16:41 | 53.79381 | -3.14685 | 3497 ft | 182 kts | 281° |
| 2026-04-20 16:41 | 53.79656 | -3.16805 | 3498 ft | 186 kts | 281° |
| 2026-04-20 16:41 | 53.79939 | -3.18960 | 3498 ft | 189 kts | 280° |
| 2026-04-20 16:41 | 53.80234 | -3.21138 | 3497 ft | 191 kts | 280° |
| 2026-04-20 16:42 | 53.80540 | -3.23334 | 3496 ft | 192 kts | 281° |
| 2026-04-20 16:42 | 53.80835 | -3.25507 | 3497 ft | 192 kts | 280° |
| 2026-04-20 16:42 | 53.81130 | -3.27706 | 3496 ft | 188 kts | 281° |
| 2026-04-20 16:42 | 53.81411 | -3.29770 | 3489 ft | 174 kts | 280° |
| 2026-04-20 16:43 | 53.81687 | -3.31706 | 3487 ft | 165 kts | 280° |
| 2026-04-20 16:43 | 53.81958 | -3.33565 | 3485 ft | 161 kts | 280° |
| 2026-04-20 16:43 | 53.82224 | -3.35379 | 3481 ft | 157 kts | 280° |
| 2026-04-20 16:43 | 53.82487 | -3.37155 | 3480 ft | 154 kts | 281° |
| 2026-04-20 16:44 | 53.82737 | -3.38902 | 3484 ft | 152 kts | 280° |
| 2026-04-20 16:44 | 53.82979 | -3.40634 | 3478 ft | 150 kts | 280° |
| 2026-04-20 16:44 | 53.83221 | -3.42347 | 3478 ft | 149 kts | 280° |
| 2026-04-20 16:44 | 53.83457 | -3.44051 | 3483 ft | 148 kts | 280° |
| 2026-04-20 16:45 | 53.83694 | -3.45749 | 3478 ft | 148 kts | 280° |
| 2026-04-20 16:45 | 53.83927 | -3.47451 | 3479 ft | 149 kts | 281° |
| 2026-04-20 16:45 | 53.84113 | -3.49163 | 3478 ft | 148 kts | 274° |
| 2026-04-20 16:45 | 53.84243 | -3.50886 | 3479 ft | 147 kts | 274° |
| 2026-04-20 16:46 | 53.84373 | -3.52609 | 3478 ft | 147 kts | 274° |
| 2026-04-20 16:46 | 53.84504 | -3.54324 | 3479 ft | 147 kts | 274° |
| 2026-04-20 16:46 | 53.84639 | -3.56058 | 3487 ft | 150 kts | 274° |
| 2026-04-20 16:46 | 53.84775 | -3.57825 | 3480 ft | 152 kts | 274° |
| 2026-04-20 16:47 | 53.84909 | -3.59603 | 3480 ft | 153 kts | 274° |
| 2026-04-20 16:47 | 53.85052 | -3.61409 | 3480 ft | 156 kts | 274° |
| 2026-04-20 16:47 | 53.85207 | -3.63233 | 3480 ft | 157 kts | 274° |
| 2026-04-20 16:47 | 53.85361 | -3.65074 | 3481 ft | 158 kts | 274° |
| 2026-04-20 16:48 | 53.85510 | -3.66927 | 3484 ft | 159 kts | 273° |
| 2026-04-20 16:48 | 53.85625 | -3.68791 | 3483 ft | 160 kts | 272° |
| 2026-04-20 16:48 | 53.85734 | -3.70668 | 3482 ft | 160 kts | 272° |
| 2026-04-20 16:48 | 53.85862 | -3.72547 | 3487 ft | 161 kts | 273° |
| 2026-04-20 16:49 | 53.85990 | -3.74431 | 3487 ft | 161 kts | 273° |
| 2026-04-20 16:49 | 53.86114 | -3.76319 | 3482 ft | 161 kts | 273° |
| 2026-04-20 16:49 | 53.86237 | -3.78209 | 3482 ft | 161 kts | 273° |
| 2026-04-20 16:49 | 53.86357 | -3.80101 | 3483 ft | 162 kts | 273° |
| 2026-04-20 16:50 | 53.86476 | -3.81976 | 3480 ft | 162 kts | 273° |
| 2026-04-20 16:50 | 53.86593 | -3.83877 | 3478 ft | 162 kts | 273° |
| 2026-04-20 16:50 | 53.86713 | -3.85774 | 3480 ft | 162 kts | 273° |
| 2026-04-20 16:50 | 53.86824 | -3.87663 | 3479 ft | 160 kts | 273° |
| 2026-04-20 16:51 | 53.86927 | -3.89539 | 3484 ft | 160 kts | 272° |
| 2026-04-20 16:51 | 53.87041 | -3.91418 | 3484 ft | 160 kts | 273° |
| 2026-04-20 16:51 | 53.87160 | -3.93293 | 3479 ft | 160 kts | 273° |
| 2026-04-20 16:51 | 53.87265 | -3.95161 | 3480 ft | 159 kts | 273° |
| 2026-04-20 16:52 | 53.87365 | -3.97017 | 3477 ft | 157 kts | 272° |
| 2026-04-20 16:52 | 53.87467 | -3.98862 | 3474 ft | 157 kts | 272° |
| 2026-04-20 16:52 | 53.87579 | -4.00709 | 3464 ft | 158 kts | 272° |
| 2026-04-20 16:52 | 53.87692 | -4.02502 | 2874 ft | 157 kts | 274° |
| 2026-04-20 16:53 | 53.87787 | -4.04335 | 2485 ft | 143 kts | 273° |
| 2026-04-20 16:53 | 53.87866 | -4.05988 | 2483 ft | 142 kts | 273° |
| 2026-04-20 16:53 | 53.87958 | -4.07680 | 2485 ft | 145 kts | 273° |
| 2026-04-20 16:53 | 53.88048 | -4.09400 | 2486 ft | 148 kts | 273° |
| 2026-04-20 16:54 | 53.88139 | -4.11149 | 2491 ft | 150 kts | 273° |
| 2026-04-20 16:54 | 53.88230 | -4.12919 | 2489 ft | 151 kts | 273° |
| 2026-04-20 16:54 | 53.88318 | -4.14683 | 2493 ft | 151 kts | 272° |
| 2026-04-20 16:54 | 53.88403 | -4.16470 | 2490 ft | 152 kts | 273° |
| 2026-04-20 16:55 | 53.88488 | -4.18257 | 2488 ft | 153 kts | 272° |
| 2026-04-20 16:55 | 53.88577 | -4.20076 | 2469 ft | 152 kts | 273° |
| 2026-04-20 16:55 | 53.88645 | -4.21857 | 2476 ft | 151 kts | 273° |
| 2026-04-20 16:55 | 53.88710 | -4.23632 | 2474 ft | 150 kts | 273° |
| 2026-04-20 16:56 | 53.88773 | -4.25388 | 2472 ft | 149 kts | 272° |
| 2026-04-20 16:56 | 53.88839 | -4.27139 | 2471 ft | 149 kts | 273° |
| 2026-04-20 16:56 | 53.88901 | -4.28885 | 2473 ft | 147 kts | 272° |
| 2026-04-20 16:56 | 53.88964 | -4.30610 | 2473 ft | 146 kts | 273° |
| 2026-04-20 16:57 | 53.89025 | -4.32331 | 2473 ft | 146 kts | 272° |
| 2026-04-20 16:57 | 53.89089 | -4.34042 | 2476 ft | 145 kts | 273° |
| 2026-04-20 16:57 | 53.89148 | -4.35754 | 2477 ft | 146 kts | 272° |
| 2026-04-20 16:57 | 53.89212 | -4.37471 | 2475 ft | 146 kts | 273° |
| 2026-04-20 16:58 | 53.89276 | -4.39188 | 2474 ft | 146 kts | 273° |
| 2026-04-20 16:58 | 53.89340 | -4.40901 | 2473 ft | 146 kts | 272° |
| 2026-04-20 16:58 | 53.89443 | -4.42609 | 2468 ft | 146 kts | 285° |
| 2026-04-20 16:58 | 53.89862 | -4.44160 | 2474 ft | 145 kts | 296° |
| 2026-04-20 16:59 | 53.90310 | -4.45687 | 2476 ft | 145 kts | 296° |
| 2026-04-20 16:59 | 53.90762 | -4.47214 | 2477 ft | 145 kts | 297° |
| 2026-04-20 16:59 | 53.91207 | -4.48723 | 2472 ft | 145 kts | 297° |
| 2026-04-20 16:59 | 53.91655 | -4.50255 | 2477 ft | 145 kts | 297° |
| 2026-04-20 17:00 | 53.92543 | -4.53336 | 2476 ft | 145 kts | 296° |
| 2026-04-20 17:00 | 53.92989 | -4.54879 | 2480 ft | 145 kts | 297° |
| 2026-04-20 17:00 | 53.93433 | -4.56412 | 2477 ft | 145 kts | 297° |
| 2026-04-20 17:01 | 53.93880 | -4.57959 | 2481 ft | 146 kts | 296° |
| 2026-04-20 17:01 | 53.94328 | -4.59516 | 2483 ft | 147 kts | 296° |
| 2026-04-20 17:01 | 53.94777 | -4.61074 | 2481 ft | 147 kts | 296° |
| 2026-04-20 17:01 | 53.95227 | -4.62629 | 2482 ft | 146 kts | 297° |
| 2026-04-20 17:02 | 53.95673 | -4.64184 | 2481 ft | 146 kts | 297° |
| 2026-04-20 17:02 | 53.96110 | -4.65714 | 2482 ft | 146 kts | 296° |
| 2026-04-20 17:02 | 53.96558 | -4.67290 | 2485 ft | 147 kts | 296° |
| 2026-04-20 17:02 | 53.97007 | -4.68852 | 2474 ft | 147 kts | 296° |
| 2026-04-20 17:03 | 53.97520 | -4.70344 | 2473 ft | 146 kts | 314° |
| 2026-04-20 17:03 | 53.98276 | -4.71470 | 2473 ft | 144 kts | 325° |
| 2026-04-20 17:03 | 53.99101 | -4.72429 | 2476 ft | 144 kts | 327° |
| 2026-04-20 17:03 | 53.99923 | -4.73356 | 2474 ft | 143 kts | 330° |
| 2026-04-20 17:04 | 54.00856 | -4.73868 | 2474 ft | 141 kts | 354° |
| 2026-04-20 17:04 | 54.01846 | -4.74085 | 2474 ft | 142 kts | 354° |
| 2026-04-20 17:04 | 54.02794 | -4.74288 | 2291 ft | 134 kts | 355° |
| 2026-04-20 17:04 | 54.03750 | -4.74498 | 1770 ft | 140 kts | 354° |
| 2026-04-20 17:05 | 54.04705 | -4.74716 | 1487 ft | 135 kts | 354° |
| 2026-04-20 17:05 | 54.05539 | -4.74906 | 1477 ft | 111 kts | 354° |
| 2026-04-20 17:05 | 54.06284 | -4.75080 | 1478 ft | 104 kts | 355° |
| 2026-04-20 17:05 | 54.06995 | -4.75250 | 1476 ft | 103 kts | 358° |
| 2026-04-20 17:06 | 54.07539 | -4.74687 | 1476 ft | 94 kts | 73° |
| 2026-04-20 17:06 | 54.07301 | -4.73761 | 1479 ft | 97 kts | 148° |
| 2026-04-20 17:06 | 54.07020 | -4.72885 | 1454 ft | 94 kts | 78° |
| 2026-04-20 17:06 | 54.07167 | -4.71775 | 1212 ft | 94 kts | 76° |
| 2026-04-20 17:07 | 54.07294 | -4.70741 | 1025 ft | 87 kts | 73° |
| 2026-04-20 17:07 | 54.07428 | -4.69810 | 917 ft | 74 kts | 78° |
| 2026-04-20 17:07 | 54.07531 | -4.68947 | 807 ft | 75 kts | 77° |
| 2026-04-20 17:07 | 54.07639 | -4.68085 | 719 ft | 74 kts | 77° |
| 2026-04-20 17:08 | 54.07733 | -4.67238 | 631 ft | 72 kts | 78° |
| 2026-04-20 17:08 | 54.07834 | -4.66403 | 481 ft | 72 kts | 77° |
| 2026-04-20 17:08 | 54.07935 | -4.65575 | 397 ft | 72 kts | 76° |
| 2026-04-20 17:08 | 54.08043 | -4.64745 | 265 ft | 71 kts | 78° |
| 2026-04-20 17:09 | 54.08140 | -4.63939 | 118 ft | 68 kts | 77° |
| 2026-04-20 17:09 | 54.08230 | -4.63195 | 35 ft | 56 kts | 76° |
| 2026-04-20 17:09 | 54.08292 | -4.62927 | 34 ft | 11 kts | 359° |
| 2026-04-20 17:09 | 54.08337 | -4.62959 | 32 ft | 0 kts | 313° |
| 2026-04-20 17:10 | 54.08375 | -4.63091 | 33 ft | 0 kts | 296° |
| 2026-04-20 17:10 | 54.08389 | -4.63141 | 33 ft | 13 kts | 292° |
| 2026-04-20 17:11 | 54.08378 | -4.63272 | 34 ft | 15 kts | 258° |
| 2026-04-20 17:11 | 54.08351 | -4.63486 | 36 ft | 19 kts | 256° |
| 2026-04-20 17:11 | 54.08367 | -4.63584 | 37 ft | 12 kts | 350° |
| 2026-04-20 17:11 | 54.08383 | -4.63592 | 37 ft | 0 kts | 320° |